Time;durP1;ratioP1;P1;durP2;ratioP2;P2;SDS_P1;SDS_P2;PMS_P1;PMS_P2;Temp;Humidity;BMP_temperature;BMP_pressure;BME280_temperature;BME280_humidity;BME280_pressure;Samples;Min_cycle;Max_cycle;Signal;HPM_P1;HPM_P2
2024/01/06 00:02:14;;;;;;;;;;;;;;;1.36;58.89;94171.44;5017935;28;19975;-66
2024/01/06 00:04:39;;;;;;;;;;;;;;;1.10;61.31;94169.63;5016832;28;19921;-65
2024/01/06 00:07:04;;;;;;;;;;;;;;;0.58;62.67;94166.00;5016421;28;19929;-65
2024/01/06 00:09:30;;;;;;;;;;;;;;;0.40;62.85;94171.25;5015223;28;19956;-66
2024/01/06 00:11:55;;;;;;;;;;;;;;;0.80;62.00;94166.53;5016309;28;19933;-66
2024/01/06 00:14:20;;;;;;;;;;;;;;;0.81;62.29;94175.19;5016724;28;19928;-66
2024/01/06 00:16:45;;;;;;;;;;;;;;;0.91;61.97;94168.06;5013208;28;20441;-66
2024/01/06 00:19:11;;;;;;;;;;;;;;;0.58;62.61;94173.06;5016379;28;20020;-66
2024/01/06 00:21:36;;;;;;;;;;;;;;;0.39;63.26;94168.78;5016777;28;20231;-66
2024/01/06 00:24:01;;;;;;;;;;;;;;;0.32;63.91;94174.66;5013788;28;20469;-65
2024/01/06 00:26:27;;;;;;;;;;;;;;;-0.19;65.89;94172.47;5015952;28;19961;-65
2024/01/06 00:28:52;;;;;;;;;;;;;;;0.24;64.85;94178.97;5016512;28;20003;-65
2024/01/06 00:31:17;;;;;;;;;;;;;;;0.20;64.64;94176.66;5015251;28;19933;-65
2024/01/06 00:33:43;;;;;;;;;;;;;;;-0.05;65.36;94178.19;5015923;28;19929;-65
2024/01/06 00:36:08;;;;;;;;;;;;;;;0.12;64.66;94178.34;5011243;28;20566;-65
2024/01/06 00:38:34;;;;;;;;;;;;;;;0.49;63.19;94180.03;5016325;28;19971;-66
2024/01/06 00:40:59;;;;;;;;;;;;;;;0.90;62.86;94181.31;5016722;28;20386;-66
2024/01/06 00:43:25;;;;;;;;;;;;;;;1.30;61.16;94176.50;5016086;28;19925;-66
2024/01/06 00:45:50;;;;;;;;;;;;;;;1.34;59.85;94178.66;5016074;28;20153;-66
2024/01/06 00:48:15;;;;;;;;;;;;;;;1.21;61.19;94186.09;5014445;28;19961;-66
2024/01/06 00:50:40;;;;;;;;;;;;;;;1.55;59.93;94180.09;5015358;28;20386;-66
2024/01/06 00:53:05;;;;;;;;;;;;;;;1.67;59.06;94180.63;5014629;28;20272;-66
2024/01/06 00:55:31;;;;;;;;;;;;;;;1.86;59.40;94186.59;5015141;28;20122;-66
2024/01/06 00:57:56;;;;;;;;;;;;;;;1.69;58.26;94185.72;5015387;28;20427;-66
2024/01/06 01:00:22;;;;;;;;;;;;;;;1.80;58.93;94182.00;5013370;28;19927;-66
2024/01/06 01:02:47;;;;;;;;;;;;;;;1.78;59.76;94190.03;5013145;28;19925;-66
2024/01/06 01:05:13;;;;;;;;;;;;;;;2.09;60.92;94193.88;5015827;28;19928;-65
2024/01/06 01:07:38;;;;;;;;;;;;;;;1.70;60.10;94192.63;5014906;28;19925;-65
2024/01/06 01:10:04;;;;;;;;;;;;;;;2.19;60.59;94186.69;5016535;28;20042;-65
2024/01/06 01:12:29;;;;;;;;;;;;;;;2.64;58.22;94189.88;5015711;28;19929;-65
2024/01/06 01:14:55;;;;;;;;;;;;;;;2.64;56.68;94195.13;5015540;28;19947;-65
2024/01/06 01:17:20;;;;;;;;;;;;;;;3.01;55.93;94194.81;5012453;28;19924;-65
2024/01/06 01:19:45;;;;;;;;;;;;;;;2.99;55.79;94191.53;5014803;28;19925;-65
2024/01/06 01:22:11;;;;;;;;;;;;;;;2.97;54.82;94194.31;5014545;28;20338;-65
2024/01/06 01:24:36;;;;;;;;;;;;;;;3.16;55.81;94198.41;5013246;28;20003;-65
2024/01/06 01:27:01;;;;;;;;;;;;;;;3.07;54.90;94206.47;5014368;28;19964;-65
2024/01/06 01:29:27;;;;;;;;;;;;;;;3.19;54.67;94207.75;5015113;28;19932;-65
2024/01/06 01:31:52;;;;;;;;;;;;;;;3.04;54.47;94211.06;5013672;28;19929;-65
2024/01/06 01:34:17;;;;;;;;;;;;;;;3.22;58.62;94209.22;5015382;28;19969;-65
2024/01/06 01:36:42;;;;;;;;;;;;;;;3.29;55.42;94203.16;5010473;28;19929;-65
2024/01/06 01:39:08;;;;;;;;;;;;;;;3.47;58.98;94210.03;5013702;28;19921;-65
2024/01/06 01:41:33;;;;;;;;;;;;;;;3.61;58.58;94221.69;5015160;28;20181;-65
2024/01/06 01:43:58;;;;;;;;;;;;;;;3.55;58.26;94219.75;5013524;28;19953;-65
2024/01/06 01:46:25;;;;;;;;;;;;;;;3.70;58.42;94221.69;5014237;28;20681;-65
2024/01/06 01:48:50;;;;;;;;;;;;;;;3.85;57.44;94222.63;5012644;28;20378;-65
2024/01/06 01:51:16;;;;;;;;;;;;;;;3.89;55.15;94221.28;5014307;28;20027;-65
2024/01/06 01:53:41;;;;;;;;;;;;;;;3.89;55.68;94223.91;5012144;28;20390;-65
2024/01/06 01:56:06;;;;;;;;;;;;;;;3.85;56.63;94220.00;5014338;28;20180;-65
2024/01/06 01:58:31;;;;;;;;;;;;;;;3.78;52.14;94217.19;5012689;28;20249;-65
2024/01/06 02:00:56;;;;;;;;;;;;;;;3.93;52.71;94230.50;5010808;28;20587;-65
2024/01/06 02:03:22;;;;;;;;;;;;;;;3.89;52.15;94221.28;5014432;28;19932;-65
2024/01/06 02:05:47;;;;;;;;;;;;;;;3.71;52.28;94221.50;5014631;28;19940;-65
2024/01/06 02:08:12;;;;;;;;;;;;;;;2.94;52.58;94230.63;5013692;28;19925;-65
2024/01/06 02:10:37;;;;;;;;;;;;;;;2.46;55.51;94223.34;5014123;28;19917;-65
2024/01/06 02:13:09;;;;;;;;;;;;;;;2.70;56.66;94217.31;5011721;28;19921;-65
2024/01/06 02:15:35;;;;;;;;;;;;;;;2.78;55.89;94209.44;5013038;28;20035;-65
2024/01/06 02:18:00;;;;;;;;;;;;;;;2.91;55.13;94214.22;5014272;28;20398;-66
2024/01/06 02:20:25;;;;;;;;;;;;;;;2.80;54.90;94211.91;5013965;28;19956;-66
2024/01/06 02:22:50;;;;;;;;;;;;;;;2.83;56.70;94227.34;5013340;28;19925;-66
2024/01/06 02:25:16;;;;;;;;;;;;;;;2.99;54.58;94220.44;5014447;28;19995;-66
2024/01/06 02:27:41;;;;;;;;;;;;;;;3.39;57.62;94229.28;5011683;28;19925;-66
2024/01/06 02:30:07;;;;;;;;;;;;;;;3.03;54.50;94227.81;5014004;28;19994;-66
2024/01/06 02:32:32;;;;;;;;;;;;;;;3.02;54.72;94230.63;5013976;28;20390;-66
2024/01/06 02:34:57;;;;;;;;;;;;;;;3.43;58.85;94235.84;5011576;28;19956;-66
2024/01/06 02:37:23;;;;;;;;;;;;;;;3.63;55.23;94239.94;5013975;28;19929;-66
2024/01/06 02:39:48;;;;;;;;;;;;;;;3.67;56.22;94247.34;5013670;28;20390;-66
2024/01/06 02:42:13;;;;;;;;;;;;;;;3.57;52.41;94245.91;5013082;28;19996;-66
2024/01/06 02:44:38;;;;;;;;;;;;;;;3.82;57.71;94251.91;5012027;28;20514;-66
2024/01/06 02:47:04;;;;;;;;;;;;;;;3.45;54.47;94256.78;5013750;28;19925;-66
2024/01/06 02:49:29;;;;;;;;;;;;;;;3.77;56.16;94264.75;5015351;28;19943;-66
2024/01/06 02:51:54;;;;;;;;;;;;;;;3.06;56.48;94260.84;5019452;28;19933;-66
2024/01/06 02:54:19;;;;;;;;;;;;;;;3.41;54.91;94261.50;5022385;28;19944;-66
2024/01/06 02:56:45;;;;;;;;;;;;;;;3.71;53.75;94262.81;5015477;28;19995;-64
2024/01/06 02:59:10;;;;;;;;;;;;;;;3.67;54.96;94265.75;5014461;28;19921;-63
2024/01/06 03:01:36;;;;;;;;;;;;;;;3.43;57.33;94266.59;5014173;28;19928;-64
2024/01/06 03:04:01;;;;;;;;;;;;;;;3.65;56.38;94264.31;5021870;28;20294;-65
2024/01/06 03:06:26;;;;;;;;;;;;;;;3.50;53.51;94266.81;5015699;28;19972;-65
2024/01/06 03:08:52;;;;;;;;;;;;;;;3.61;56.59;94276.97;5018090;28;20586;-65
2024/01/06 03:11:17;;;;;;;;;;;;;;;3.47;57.21;94267.13;5016389;28;19929;-65
2024/01/06 03:13:42;;;;;;;;;;;;;;;3.61;58.51;94273.53;5017653;28;19929;-65
2024/01/06 03:16:07;;;;;;;;;;;;;;;3.72;57.71;94274.97;5017754;28;19921;-65
2024/01/06 03:18:33;;;;;;;;;;;;;;;3.08;53.48;94273.84;5019170;28;19995;-65
2024/01/06 03:20:58;;;;;;;;;;;;;;;3.65;54.85;94282.72;5018965;28;20416;-65
2024/01/06 03:23:23;;;;;;;;;;;;;;;3.72;54.62;94286.34;5017945;28;19924;-65
2024/01/06 03:25:49;;;;;;;;;;;;;;;3.92;53.75;94281.50;5020308;28;19925;-65
2024/01/06 03:28:14;;;;;;;;;;;;;;;3.84;55.62;94289.41;5017450;28;19931;-66
2024/01/06 03:30:39;;;;;;;;;;;;;;;4.07;56.25;94291.34;5021447;28;19960;-65
2024/01/06 03:33:05;;;;;;;;;;;;;;;3.59;53.03;94294.75;5017724;28;19925;-65
2024/01/06 03:35:30;;;;;;;;;;;;;;;3.25;53.62;94300.97;5016040;28;20020;-65
2024/01/06 03:37:56;;;;;;;;;;;;;;;3.42;52.95;94294.72;5016412;28;19982;-65
2024/01/06 03:40:21;;;;;;;;;;;;;;;3.60;54.43;94299.00;5017169;28;19972;-65
2024/01/06 03:42:46;;;;;;;;;;;;;;;3.46;53.08;94292.59;5017273;28;19992;-65
2024/01/06 03:45:12;;;;;;;;;;;;;;;3.09;53.68;94296.56;5017525;28;19925;-65
2024/01/06 03:47:37;;;;;;;;;;;;;;;3.57;57.27;94298.53;5016272;28;19929;-65
2024/01/06 03:50:02;;;;;;;;;;;;;;;3.70;55.54;94293.56;5016732;28;19925;-65
2024/01/06 03:52:27;;;;;;;;;;;;;;;3.84;55.99;94294.69;5016299;28;20368;-65
2024/01/06 03:54:53;;;;;;;;;;;;;;;3.86;53.93;94292.72;5017338;28;19960;-65
2024/01/06 03:57:18;;;;;;;;;;;;;;;3.79;52.11;94299.63;5017777;28;19921;-65
2024/01/06 03:59:43;;;;;;;;;;;;;;;3.71;54.00;94297.03;5011483;28;19929;-66
2024/01/06 04:02:09;;;;;;;;;;;;;;;3.45;54.46;94304.13;5016069;28;20488;-66
2024/01/06 04:04:34;;;;;;;;;;;;;;;3.79;53.44;94310.16;5015709;28;19986;-66
2024/01/06 04:07:01;;;;;;;;;;;;;;;3.71;54.11;94311.00;5016088;28;19929;-66
2024/01/06 04:09:26;;;;;;;;;;;;;;;3.81;54.33;94310.81;5017622;28;20330;-66
2024/01/06 04:11:51;;;;;;;;;;;;;;;3.47;53.57;94307.41;5017218;28;20378;-66
2024/01/06 04:14:17;;;;;;;;;;;;;;;3.40;55.19;94316.91;5017389;28;20599;-66
2024/01/06 04:16:42;;;;;;;;;;;;;;;3.57;56.39;94315.13;5015236;28;19929;-66
2024/01/06 04:19:08;;;;;;;;;;;;;;;3.58;54.46;94314.16;5016102;28;20252;-66
2024/01/06 04:21:33;;;;;;;;;;;;;;;3.00;54.53;94322.81;5016837;28;20008;-66
2024/01/06 04:23:59;;;;;;;;;;;;;;;3.42;55.71;94322.84;5015790;28;20442;-66
2024/01/06 04:26:24;;;;;;;;;;;;;;;3.22;56.04;94322.34;5020343;28;19975;-66
2024/01/06 04:28:50;;;;;;;;;;;;;;;3.26;54.90;94319.22;5015334;28;20064;-66
2024/01/06 04:31:15;;;;;;;;;;;;;;;3.37;56.61;94314.63;5016597;28;20426;-66
2024/01/06 04:33:40;;;;;;;;;;;;;;;3.61;57.61;94316.44;5016145;28;19990;-66
2024/01/06 04:36:06;;;;;;;;;;;;;;;3.74;54.44;94320.41;5011521;28;19968;-65
2024/01/06 04:38:32;;;;;;;;;;;;;;;3.86;54.32;94315.59;5016393;28;20440;-65
2024/01/06 04:40:57;;;;;;;;;;;;;;;3.97;56.84;94311.75;5016552;28;19924;-65
2024/01/06 04:43:22;;;;;;;;;;;;;;;3.89;53.16;94313.44;5016276;28;20515;-65
2024/01/06 04:45:47;;;;;;;;;;;;;;;3.94;56.32;94318.19;5016567;28;20495;-65
2024/01/06 04:48:13;;;;;;;;;;;;;;;3.89;53.40;94318.72;5015135;28;20390;-65
2024/01/06 04:50:38;;;;;;;;;;;;;;;3.94;57.49;94324.28;5015618;28;20014;-65
2024/01/06 04:53:03;;;;;;;;;;;;;;;4.10;57.65;94316.50;5016361;28;19992;-66
2024/01/06 04:55:28;;;;;;;;;;;;;;;4.16;56.05;94321.09;5015864;28;19921;-65
2024/01/06 04:57:54;;;;;;;;;;;;;;;4.00;52.96;94314.06;5016893;28;20476;-65
2024/01/06 05:00:19;;;;;;;;;;;;;;;3.74;56.81;94323.81;5009951;28;20029;-66
2024/01/06 05:02:44;;;;;;;;;;;;;;;3.59;55.53;94323.69;5014825;28;19929;-65
2024/01/06 05:05:09;;;;;;;;;;;;;;;3.88;54.68;94329.41;5015493;28;20045;-65
2024/01/06 05:07:35;;;;;;;;;;;;;;;3.83;55.03;94329.91;5015395;28;20003;-65
2024/01/06 05:10:00;;;;;;;;;;;;;;;3.93;55.51;94327.94;5016435;28;19925;-65
2024/01/06 05:12:25;;;;;;;;;;;;;;;3.91;54.23;94319.34;5015449;28;19925;-65
2024/01/06 05:14:50;;;;;;;;;;;;;;;4.00;54.00;94317.53;5015328;28;19979;-65
2024/01/06 05:17:16;;;;;;;;;;;;;;;4.09;53.15;94320.97;5012347;28;20426;-65
2024/01/06 05:19:41;;;;;;;;;;;;;;;4.10;54.35;94316.50;5015588;28;19925;-65
2024/01/06 05:22:06;;;;;;;;;;;;;;;3.86;53.88;94319.03;5016083;28;19932;-65
2024/01/06 05:24:31;;;;;;;;;;;;;;;3.98;53.13;94326.59;5015575;28;20359;-65
2024/01/06 05:26:57;;;;;;;;;;;;;;;3.85;54.44;94327.94;5013268;28;20086;-65
2024/01/06 05:29:22;;;;;;;;;;;;;;;3.88;53.75;94332.84;5015549;28;20167;-65
2024/01/06 05:31:48;;;;;;;;;;;;;;;3.73;53.94;94337.16;5014836;28;20011;-65
2024/01/06 05:34:14;;;;;;;;;;;;;;;3.70;53.51;94329.63;5015391;28;19928;-66
2024/01/06 05:36:39;;;;;;;;;;;;;;;3.65;54.16;94330.09;5013254;28;19929;-65
2024/01/06 05:39:04;;;;;;;;;;;;;;;3.24;58.86;94336.16;5015397;28;19931;-65
2024/01/06 05:41:31;;;;;;;;;;;;;;;3.46;55.73;94323.34;5014285;28;20318;-65
2024/01/06 05:43:56;;;;;;;;;;;;;;;3.60;56.78;94324.53;5013550;28;19925;-65
2024/01/06 05:46:22;;;;;;;;;;;;;;;3.61;57.90;94323.53;5013341;28;19979;-65
2024/01/06 05:48:48;;;;;;;;;;;;;;;3.72;56.40;94338.16;5014633;28;19928;-65
2024/01/06 05:51:13;;;;;;;;;;;;;;;3.88;55.40;94345.22;5015093;28;20433;-65
2024/01/06 05:53:38;;;;;;;;;;;;;;;3.86;58.04;94345.38;5015369;28;19970;-65
2024/01/06 05:56:03;;;;;;;;;;;;;;;3.50;58.87;94349.19;5015220;28;19961;-65
2024/01/06 05:58:29;;;;;;;;;;;;;;;3.79;59.02;94349.66;5015072;28;19952;-66
2024/01/06 06:00:54;;;;;;;;;;;;;;;3.76;54.79;94345.56;5008127;28;19979;-65
2024/01/06 06:03:19;;;;;;;;;;;;;;;4.01;56.94;94347.34;5015021;28;20428;-65
2024/01/06 06:05:44;;;;;;;;;;;;;;;3.99;56.63;94354.56;5014934;28;20400;-65
2024/01/06 06:08:10;;;;;;;;;;;;;;;3.98;52.88;94355.56;5015342;28;19921;-65
2024/01/06 06:10:51;;;;;;;;;;;;;;;3.99;56.63;94362.47;5014868;28;19936;-65
2024/01/06 06:13:16;;;;;;;;;;;;;;;3.94;52.85;94373.50;5015447;28;20572;-65
2024/01/06 06:15:42;;;;;;;;;;;;;;;3.33;54.30;94366.75;5011465;28;19972;-65
2024/01/06 06:18:07;;;;;;;;;;;;;;;3.63;54.06;94367.13;5014324;28;20333;-65
2024/01/06 06:20:32;;;;;;;;;;;;;;;3.78;55.25;94369.91;5014411;28;19924;-65
2024/01/06 06:22:57;;;;;;;;;;;;;;;3.96;53.65;94368.91;5014710;28;19955;-66
2024/01/06 06:25:23;;;;;;;;;;;;;;;3.40;53.48;94373.00;5014766;28;20060;-65
2024/01/06 06:27:48;;;;;;;;;;;;;;;2.49;55.69;94381.50;5013828;28;20259;-65
2024/01/06 06:30:13;;;;;;;;;;;;;;;3.29;57.39;94382.03;5015250;28;19922;-65
2024/01/06 06:32:39;;;;;;;;;;;;;;;3.03;55.26;94385.59;5014366;28;20352;-65
2024/01/06 06:35:04;;;;;;;;;;;;;;;3.33;58.16;94385.16;5011375;28;20418;-65
2024/01/06 06:37:29;;;;;;;;;;;;;;;3.53;55.92;94383.06;5014585;28;20081;-65
2024/01/06 06:39:55;;;;;;;;;;;;;;;3.67;58.33;94388.66;5013214;28;19921;-65
2024/01/06 06:42:20;;;;;;;;;;;;;;;3.85;59.04;94396.41;5014445;28;19979;-65
2024/01/06 06:44:46;;;;;;;;;;;;;;;4.06;58.77;94397.69;5013886;28;19933;-65
2024/01/06 06:47:11;;;;;;;;;;;;;;;4.27;55.43;94401.59;5013851;28;20225;-65
2024/01/06 06:49:37;;;;;;;;;;;;;;;4.25;53.66;94400.97;5014738;28;19925;-65
2024/01/06 06:52:03;;;;;;;;;;;;;;;4.16;55.42;94403.59;5014538;28;20048;-65
2024/01/06 06:54:28;;;;;;;;;;;;;;;4.29;57.10;94404.91;5012107;28;20061;-66
2024/01/06 06:56:54;;;;;;;;;;;;;;;4.14;53.94;94410.00;5014913;28;20032;-66
2024/01/06 06:59:19;;;;;;;;;;;;;;;4.06;52.49;94401.13;5010884;28;20297;-65
2024/01/06 07:01:44;;;;;;;;;;;;;;;3.65;55.13;94415.16;5011816;28;20015;-65
2024/01/06 07:04:09;;;;;;;;;;;;;;;3.66;55.20;94422.06;5012162;28;20384;-65
2024/01/06 07:06:35;;;;;;;;;;;;;;;3.84;54.29;94420.25;5013947;28;20524;-65
2024/01/06 07:09:00;;;;;;;;;;;;;;;3.78;53.92;94432.28;5014483;28;20145;-65
2024/01/06 07:11:25;;;;;;;;;;;;;;;3.85;54.04;94429.81;5014483;28;19996;-65
2024/01/06 07:13:51;;;;;;;;;;;;;;;3.13;54.35;94440.69;5014826;28;20457;-65
2024/01/06 07:16:16;;;;;;;;;;;;;;;3.32;55.00;94443.19;5011664;28;20390;-65
2024/01/06 07:18:41;;;;;;;;;;;;;;;3.45;55.03;94442.75;5011809;28;19952;-65
2024/01/06 07:21:06;;;;;;;;;;;;;;;3.17;54.99;94452.53;5014952;28;20195;-65
2024/01/06 07:23:32;;;;;;;;;;;;;;;3.46;54.98;94447.03;5014409;28;19925;-65
2024/01/06 07:25:57;;;;;;;;;;;;;;;3.58;57.12;94447.56;5013504;28;20471;-65
2024/01/06 07:28:23;;;;;;;;;;;;;;;3.76;58.98;94450.03;5014382;28;19932;-65
2024/01/06 07:30:48;;;;;;;;;;;;;;;3.83;56.20;94445.75;5013759;28;20314;-65
2024/01/06 07:33:13;;;;;;;;;;;;;;;4.03;54.16;94455.97;5012700;28;20374;-65
2024/01/06 07:35:43;;;;;;;;;;;;;;;4.08;54.56;94456.28;5013828;28;20187;-65
2024/01/06 07:38:10;;;;;;;;;;;;;;;3.94;54.24;94461.25;5017934;28;19925;-65
2024/01/06 07:40:35;;;;;;;;;;;;;;;3.58;53.79;94461.56;5017540;28;19929;-65
2024/01/06 07:43:01;;;;;;;;;;;;;;;3.78;56.42;94471.78;5017233;28;19929;-65
2024/01/06 07:45:27;;;;;;;;;;;;;;;3.93;56.15;94467.50;5017282;28;20172;-65
2024/01/06 07:47:52;;;;;;;;;;;;;;;3.88;54.81;94469.78;5010619;28;20430;-65
2024/01/06 07:50:17;;;;;;;;;;;;;;;3.83;54.86;94469.47;5017819;28;20016;-65
2024/01/06 07:52:42;;;;;;;;;;;;;;;3.84;53.94;94468.47;5017265;28;20414;-65
2024/01/06 07:55:08;;;;;;;;;;;;;;;3.39;55.52;94476.63;5017362;28;20161;-65
2024/01/06 07:57:33;;;;;;;;;;;;;;;3.27;56.15;94480.53;5017684;28;19925;-65
2024/01/06 07:59:58;;;;;;;;;;;;;;;2.97;56.76;94482.72;5011003;28;19928;-65
2024/01/06 08:02:24;;;;;;;;;;;;;;;2.71;57.85;94488.84;5015468;28;20036;-65
2024/01/06 08:04:49;;;;;;;;;;;;;;;2.14;60.31;94491.78;5017606;28;20371;-65
2024/01/06 08:07:14;;;;;;;;;;;;;;;2.29;58.91;94498.28;5016934;28;19978;-65
2024/01/06 08:09:39;;;;;;;;;;;;;;;2.33;60.13;94503.09;5017454;28;19921;-65
2024/01/06 08:12:05;;;;;;;;;;;;;;;2.04;60.63;94509.44;5015343;28;19964;-65
2024/01/06 08:14:30;;;;;;;;;;;;;;;1.66;61.84;94514.03;5016980;28;20142;-65
2024/01/06 08:16:55;;;;;;;;;;;;;;;1.30;63.06;94507.72;5011789;28;19960;-65
2024/01/06 08:19:21;;;;;;;;;;;;;;;1.06;64.90;94516.16;5017651;28;20334;-65
2024/01/06 08:21:47;;;;;;;;;;;;;;;1.18;64.72;94506.28;5017056;28;19928;-65
2024/01/06 08:24:12;;;;;;;;;;;;;;;0.99;65.15;94508.06;5017096;28;19948;-65
2024/01/06 08:26:37;;;;;;;;;;;;;;;1.13;65.00;94504.13;5016477;28;19933;-65
2024/01/06 08:29:03;;;;;;;;;;;;;;;1.06;65.16;94516.97;5017453;28;19921;-65
2024/01/06 08:31:28;;;;;;;;;;;;;;;1.15;64.30;94519.66;5015447;28;20028;-65
2024/01/06 08:33:53;;;;;;;;;;;;;;;0.78;65.13;94527.44;5017548;28;19925;-65
2024/01/06 08:36:18;;;;;;;;;;;;;;;0.31;68.12;94543.97;5011640;28;20494;-65
2024/01/06 08:38:44;;;;;;;;;;;;;;;0.63;67.35;94536.72;5016815;28;20252;-65
2024/01/06 08:41:09;;;;;;;;;;;;;;;0.93;66.18;94534.84;5015419;28;19922;-65
2024/01/06 08:43:34;;;;;;;;;;;;;;;0.50;66.85;94542.25;5014793;28;20010;-65
2024/01/06 08:46:00;;;;;;;;;;;;;;;0.43;66.94;94553.31;5015839;28;19929;-65
2024/01/06 08:48:25;;;;;;;;;;;;;;;0.11;68.52;94553.63;5016627;28;20140;-65
2024/01/06 08:50:50;;;;;;;;;;;;;;;0.47;66.38;94561.72;5015865;28;19932;-65
2024/01/06 08:53:16;;;;;;;;;;;;;;;0.62;66.99;94561.28;5016423;28;19925;-65
2024/01/06 08:55:41;;;;;;;;;;;;;;;0.57;66.69;94561.69;5014921;28;20674;-65
2024/01/06 08:58:06;;;;;;;;;;;;;;;0.82;65.68;94556.81;5016177;28;20400;-65
2024/01/06 09:00:32;;;;;;;;;;;;;;;0.81;65.64;94555.97;5012928;28;19933;-65
2024/01/06 09:02:57;;;;;;;;;;;;;;;0.76;66.18;94560.81;5015901;28;19966;-65
2024/01/06 09:05:22;;;;;;;;;;;;;;;0.89;66.16;94567.53;5016547;28;19921;-65
2024/01/06 09:07:50;;;;;;;;;;;;;;;1.24;64.75;94577.34;5016056;28;19925;-65
2024/01/06 09:10:16;;;;;;;;;;;;;;;1.41;63.70;94576.69;5015479;28;19956;-65
2024/01/06 09:12:41;;;;;;;;;;;;;;;1.21;63.65;94576.78;5013765;28;19928;-65
2024/01/06 09:15:06;;;;;;;;;;;;;;;0.83;64.80;94582.88;5014092;28;19974;-65
2024/01/06 09:17:32;;;;;;;;;;;;;;;1.10;64.25;94581.25;5014729;28;19921;-65
2024/01/06 09:19:58;;;;;;;;;;;;;;;0.82;66.07;94583.81;5016558;28;20236;-65
2024/01/06 09:22:23;;;;;;;;;;;;;;;0.36;67.68;94598.53;5016663;28;19927;-65
2024/01/06 09:24:49;;;;;;;;;;;;;;;-0.15;70.48;94602.13;5015971;28;20351;-65
2024/01/06 09:27:14;;;;;;;;;;;;;;;0.35;68.83;94608.19;5014058;28;20354;-65
2024/01/06 09:29:40;;;;;;;;;;;;;;;-0.01;70.27;94605.28;5014818;28;19929;-65
2024/01/06 09:32:05;;;;;;;;;;;;;;;0.17;69.59;94611.50;5014455;28;20582;-65
2024/01/06 09:34:30;;;;;;;;;;;;;;;0.05;70.27;94617.84;5014287;28;19994;-65
2024/01/06 09:36:55;;;;;;;;;;;;;;;-0.02;70.43;94616.72;5012766;28;20523;-65
2024/01/06 09:39:21;;;;;;;;;;;;;;;-0.08;70.87;94608.47;5014793;28;19962;-65
2024/01/06 09:41:46;;;;;;;;;;;;;;;-0.27;71.76;94619.72;5013076;28;19925;-65
2024/01/06 09:44:11;;;;;;;;;;;;;;;-1.01;74.91;94609.44;5011668;28;20039;-64
2024/01/06 09:46:37;;;;;;;;;;;;;;;-0.96;75.65;94617.72;5014743;28;20433;-65
2024/01/06 09:49:02;;;;;;;;;;;;;;;-1.46;77.27;94619.19;5014256;28;19916;-65
2024/01/06 09:51:28;;;;;;;;;;;;;;;-1.22;76.66;94625.13;5015830;28;19970;-65
2024/01/06 09:54:00;;;;;;;;;;;;;;;-1.44;76.72;94631.28;5009294;28;20307;-65
2024/01/06 09:56:26;;;;;;;;;;;;;;;-1.48;77.37;94620.28;5012557;28;20420;-65
2024/01/06 09:58:51;;;;;;;;;;;;;;;-1.40;76.07;94627.47;5013331;28;19929;-65
2024/01/06 10:01:20;;;;;;;;;;;;;;;-1.40;75.79;94628.31;5015060;28;20021;-65
2024/01/06 10:03:45;;;;;;;;;;;;;;;-1.73;76.69;94641.41;5008949;28;19961;-65
2024/01/06 10:06:11;;;;;;;;;;;;;;;-1.42;75.62;94642.47;5014462;28;19936;-64
2024/01/06 10:08:36;;;;;;;;;;;;;;;-1.19;74.51;94637.91;5015434;28;19998;-64
2024/01/06 10:11:01;;;;;;;;;;;;;;;-1.27;73.84;94638.56;5014375;28;19928;-64
2024/01/06 10:13:28;;;;;;;;;;;;;;;-1.26;74.33;94635.00;5015229;28;20353;-64
2024/01/06 10:15:54;;;;;;;;;;;;;;;-1.27;75.16;94635.97;5012779;28;19936;-64
2024/01/06 10:18:19;;;;;;;;;;;;;;;-1.42;75.44;94634.63;5014110;28;19953;-64
2024/01/06 10:20:45;;;;;;;;;;;;;;;-1.13;74.96;94637.41;5015071;28;19956;-64
2024/01/06 10:23:10;;;;;;;;;;;;;;;-0.72;73.92;94642.72;5015320;28;19929;-64
2024/01/06 10:25:35;;;;;;;;;;;;;;;-0.77;73.42;94641.47;5014706;28;20566;-64
2024/01/06 10:28:01;;;;;;;;;;;;;;;-0.81;73.02;94648.75;5014107;28;19959;-64
2024/01/06 10:30:27;;;;;;;;;;;;;;;-0.57;72.09;94650.22;5011626;28;20000;-64
2024/01/06 10:32:52;;;;;;;;;;;;;;;-0.49;70.94;94654.75;5014550;28;19970;-64
2024/01/06 10:35:18;;;;;;;;;;;;;;;-0.92;71.48;94662.69;5010953;28;19933;-64
2024/01/06 10:37:43;;;;;;;;;;;;;;;-1.68;73.10;94672.38;5015591;28;20520;-63
2024/01/06 10:40:09;;;;;;;;;;;;;;;-1.64;74.21;94665.09;5012591;28;19929;-64
2024/01/06 10:42:34;;;;;;;;;;;;;;;-0.95;71.12;94673.41;5014152;28;19992;-64
2024/01/06 10:45:00;;;;;;;;;;;;;;;-0.98;70.06;94673.66;5011899;28;19959;-64
2024/01/06 10:47:26;;;;;;;;;;;;;;;-1.64;72.04;94673.78;5013375;28;20147;-64
2024/01/06 10:49:54;;;;;;;;;;;;;;;-1.73;72.82;94670.13;5013882;28;20383;-64
2024/01/06 10:52:19;;;;;;;;;;;;;;;-1.52;72.19;94666.69;5014539;28;20051;-64
2024/01/06 10:54:44;;;;;;;;;;;;;;;-1.08;71.05;94666.56;5013327;28;19928;-64
2024/01/06 10:57:10;;;;;;;;;;;;;;;-0.96;70.03;94675.22;5014589;28;20213;-64
2024/01/06 10:59:35;;;;;;;;;;;;;;;-0.80;69.18;94676.53;5012322;28;19997;-64
2024/01/06 11:02:01;;;;;;;;;;;;;;;-0.33;67.98;94696.13;5013093;28;20406;-64
2024/01/06 11:04:26;;;;;;;;;;;;;;;-0.64;68.12;94686.50;5014813;28;20490;-64
2024/01/06 11:06:51;;;;;;;;;;;;;;;-0.66;68.85;94682.34;5014487;28;20148;-64
2024/01/06 11:09:21;;;;;;;;;;;;;;;-1.92;72.63;94683.00;5013030;28;19966;-64
2024/01/06 11:11:46;;;;;;;;;;;;;;;-2.05;73.44;94691.81;5016136;28;20346;-64
2024/01/06 11:14:24;;;;;;;;;;;;;;;-2.28;75.99;94686.63;5017377;28;20457;-64
2024/01/06 11:16:50;;;;;;;;;;;;;;;-2.50;77.96;94685.72;5017003;28;20043;-64
2024/01/06 11:19:33;;;;;;;;;;;;;;;-1.99;76.10;94683.50;5017855;28;20004;-64
2024/01/06 11:22:17;;;;;;;;;;;;;;;-2.01;76.20;94692.38;5015307;28;19945;-64
2024/01/06 11:24:42;;;;;;;;;;;;;;;-1.62;73.78;94681.47;5016732;28;19962;-64
2024/01/06 11:27:09;;;;;;;;;;;;;;;-1.24;71.87;94674.88;5017706;28;19926;-64
2024/01/06 11:29:34;;;;;;;;;;;;;;;-1.23;71.93;94679.16;5011678;28;19932;-64
2024/01/06 11:32:19;;;;;;;;;;;;;;;-1.12;71.22;94678.25;5014721;28;19932;-64
2024/01/06 11:34:47;;;;;;;;;;;;;;;-0.68;70.80;94673.84;5013756;28;19920;-64
2024/01/06 11:37:13;;;;;;;;;;;;;;;-0.29;67.54;94670.50;5015190;28;20128;-65
2024/01/06 11:39:40;;;;;;;;;;;;;;;-1.60;70.08;94679.56;5017645;28;19936;-64
2024/01/06 11:42:06;;;;;;;;;;;;;;;-1.57;70.17;94687.16;5018889;28;19944;-65
2024/01/06 11:44:36;;;;;;;;;;;;;;;-1.65;70.12;94684.34;5016067;28;19957;-65
2024/01/06 11:47:02;;;;;;;;;;;;;;;-1.76;70.18;94686.03;5017418;28;19929;-65
2024/01/06 11:49:30;;;;;;;;;;;;;;;-1.74;69.80;94684.13;5019315;28;19930;-65
2024/01/06 11:51:56;;;;;;;;;;;;;;;-1.12;67.82;94687.88;5016553;28;20005;-65
2024/01/06 11:54:21;;;;;;;;;;;;;;;-1.26;67.03;94687.22;5021915;28;19967;-65
2024/01/06 11:56:47;;;;;;;;;;;;;;;-1.34;67.12;94687.03;5017550;28;19928;-65
2024/01/06 11:59:12;;;;;;;;;;;;;;;-1.36;67.68;94681.94;5015272;28;19932;-65
2024/01/06 12:01:37;;;;;;;;;;;;;;;-1.81;68.82;94672.53;5019494;28;20002;-65
2024/01/06 12:04:04;;;;;;;;;;;;;;;-1.68;69.24;94680.19;5015973;28;19979;-65
2024/01/06 12:06:30;;;;;;;;;;;;;;;-1.54;68.40;94673.84;5017321;28;19925;-65
2024/01/06 12:09:08;;;;;;;;;;;;;;;-1.40;68.72;94671.88;5021817;28;20454;-65
2024/01/06 12:11:33;;;;;;;;;;;;;;;-1.09;67.01;94667.53;5021134;28;19936;-65
2024/01/06 12:13:58;;;;;;;;;;;;;;;-0.57;65.78;94663.28;5015389;28;19921;-65
2024/01/06 12:16:27;;;;;;;;;;;;;;;-0.67;66.80;94658.03;5013376;28;19987;-65
2024/01/06 12:18:56;;;;;;;;;;;;;;;-0.80;66.06;94660.84;5016393;28;19974;-65
2024/01/06 12:21:24;;;;;;;;;;;;;;;-0.51;65.78;94667.97;5014132;28;20143;-65
2024/01/06 12:23:50;;;;;;;;;;;;;;;-0.29;64.84;94662.66;5014755;28;20427;-65
2024/01/06 12:26:18;;;;;;;;;;;;;;;-0.37;65.30;94658.94;5016232;28;19920;-65
2024/01/06 12:28:46;;;;;;;;;;;;;;;-0.23;64.51;94665.56;5015492;28;19933;-65
2024/01/06 12:31:14;;;;;;;;;;;;;;;-0.44;65.04;94657.81;5015407;28;19923;-65
2024/01/06 12:33:40;;;;;;;;;;;;;;;-0.48;66.43;94656.41;5015747;28;19925;-65
2024/01/06 12:36:08;;;;;;;;;;;;;;;-0.49;65.87;94666.06;5014786;28;20392;-65
2024/01/06 12:38:34;;;;;;;;;;;;;;;-0.57;66.02;94664.09;5011336;28;20302;-65
2024/01/06 12:40:59;;;;;;;;;;;;;;;-0.36;65.96;94668.44;5015780;28;19956;-65
2024/01/06 12:43:25;;;;;;;;;;;;;;;-0.13;65.46;94678.66;5015040;28;20343;-65
2024/01/06 12:45:52;;;;;;;;;;;;;;;-0.10;64.88;94673.19;5015412;28;20494;-65
2024/01/06 12:48:17;;;;;;;;;;;;;;;-0.27;65.15;94669.41;5015625;28;19956;-64